Time;durP1;ratioP1;P1;durP2;ratioP2;P2;SDS_P1;SDS_P2;PMS_P1;PMS_P2;Temp;Humidity;BMP_temperature;BMP_pressure;BME280_temperature;BME280_humidity;BME280_pressure;Samples;Min_cycle;Max_cycle;Signal;HPM_P1;HPM_P2
2022/05/18 00:00:14;;;;;;;8.07;3.57;;;;;;;10.55;84.60;98306.94;6255448;28;20216;-72
2022/05/18 00:03:19;;;;;;;4.10;3.20;;;;;;;10.49;84.50;98309.97;6253420;28;20606;-72
2022/05/18 00:06:22;;;;;;;3.87;2.93;;;;;;;10.44;84.65;98309.47;6253936;28;20317;-72
2022/05/18 00:09:24;;;;;;;5.07;3.73;;;;;;;10.41;84.36;98307.88;6253194;28;20237;-71
2022/05/18 00:12:26;;;;;;;4.50;3.50;;;;;;;10.40;84.52;98308.00;6235812;28;20227;-72
2022/05/18 00:15:29;;;;;;;5.37;3.33;;;;;;;10.35;84.36;98317.09;6252944;28;20225;-71
2022/05/18 00:18:31;;;;;;;4.23;3.40;;;;;;;10.30;84.26;98319.19;6236242;28;20293;-72
2022/05/18 00:21:33;;;;;;;4.47;3.77;;;;;;;10.22;84.71;98315.38;6253480;28;20236;-72
2022/05/18 00:24:35;;;;;;;5.83;3.87;;;;;;;10.15;84.63;98319.38;6252414;28;20880;-72
2022/05/18 00:27:37;;;;;;;9.77;4.00;;;;;;;10.06;85.07;98326.13;6234317;28;20608;-72
2022/05/18 00:30:39;;;;;;;6.83;3.60;;;;;;;10.03;85.30;98328.94;6227836;28;20702;-72
2022/05/18 00:33:41;;;;;;;4.33;3.93;;;;;;;10.00;85.47;98327.38;6248465;28;20280;-72
2022/05/18 00:36:43;;;;;;;5.87;3.30;;;;;;;9.98;85.60;98323.16;6253110;28;20729;-72
2022/05/18 00:39:45;;;;;;;7.40;3.63;;;;;;;9.94;85.61;98325.16;6251957;28;20716;-72
2022/05/18 00:42:47;;;;;;;4.67;3.13;;;;;;;9.90;85.46;98339.47;6252018;28;20231;-72
2022/05/18 00:45:49;;;;;;;3.80;3.50;;;;;;;9.88;86.25;98333.44;6253516;28;20223;-72
2022/05/18 00:48:53;;;;;;;5.33;3.83;;;;;;;9.90;85.72;98344.75;6252366;28;20736;-72
2022/05/18 00:51:55;;;;;;;5.87;4.20;;;;;;;9.91;86.21;98345.59;6253275;28;20732;-72
2022/05/18 00:55:00;;;;;;;4.00;3.60;;;;;;;9.92;85.83;98345.50;6253080;28;20447;-72
2022/05/18 00:58:16;;;;;;;5.93;4.10;;;;;;;9.92;86.10;98355.19;6245239;28;20259;-72
2022/05/18 01:01:55;;;;;;;5.33;4.10;;;;;;;9.92;85.27;98360.47;6232407;28;20707;-72
2022/05/18 01:05:00;;;;;;;5.83;3.67;;;;;;;9.90;85.86;98362.34;6226320;28;20710;-71
2022/05/18 01:08:02;;;;;;;5.00;3.80;;;;;;;9.88;85.14;98369.53;6247442;28;20331;-72
2022/05/18 01:11:06;;;;;;;4.70;3.80;;;;;;;9.86;85.82;98367.00;6252919;28;20239;-72
2022/05/18 01:14:17;;;;;;;3.53;3.23;;;;;;;9.82;85.60;98362.03;6251862;28;20227;-72
2022/05/18 01:17:24;;;;;;;4.20;3.80;;;;;;;9.78;85.82;98364.00;6252302;28;20225;-72
2022/05/18 01:20:32;;;;;;;3.63;3.33;;;;;;;9.76;84.51;98368.56;6253421;28;20223;-71
2022/05/18 01:23:41;;;;;;;3.60;3.30;;;;;;;9.71;85.02;98369.78;6257840;28;20227;-71
2022/05/18 01:26:46;;;;;;;4.10;3.37;;;;;;;9.66;85.13;98378.03;6256230;28;20244;-71
2022/05/18 01:29:49;;;;;;;4.50;3.57;;;;;;;9.64;84.97;98379.91;6257075;28;20243;-72
2022/05/18 01:32:53;;;;;;;5.30;3.50;;;;;;;9.63;85.05;98370.31;6239130;28;20235;-72
2022/05/18 01:35:56;;;;;;;3.90;3.57;;;;;;;9.59;85.27;98367.00;6257410;28;20229;-72
2022/05/18 01:39:00;;;;;;;4.97;3.47;;;;;;;9.50;84.62;98379.94;6257025;28;20326;-72
2022/05/18 01:42:27;;;;;;;3.63;3.33;;;;;;;9.43;84.79;98379.50;6256782;28;20239;-72
2022/05/18 01:45:29;;;;;;;3.73;3.10;;;;;;;9.37;85.31;98376.44;6256711;28;20315;-72
2022/05/18 01:48:41;;;;;;;3.30;3.00;;;;;;;9.34;85.48;98377.47;6231087;28;20255;-72
2022/05/18 01:51:48;;;;;;;3.70;3.27;;;;;;;9.33;85.10;98373.13;6240026;28;20353;-72
2022/05/18 01:54:50;;;;;;;6.70;3.53;;;;;;;9.34;85.17;98373.97;6239307;28;20235;-72
2022/05/18 01:57:53;;;;;;;7.60;3.87;;;;;;;9.33;85.19;98380.19;6238556;28;20289;-72
2022/05/18 02:00:55;;;;;;;4.40;3.47;;;;;;;9.32;85.46;98389.03;6256078;28;20318;-72
2022/05/18 02:03:57;;;;;;;3.87;3.40;;;;;;;9.28;84.93;98390.19;6256256;28;20244;-72
2022/05/18 02:07:01;;;;;;;4.30;3.63;;;;;;;9.26;85.02;98398.19;6238303;28;20330;-72
2022/05/18 02:10:04;;;;;;;3.73;3.37;;;;;;;9.23;84.37;98399.22;6255965;28;20319;-72
2022/05/18 02:13:06;;;;;;;5.33;3.70;;;;;;;9.22;84.92;98402.78;6239230;28;20281;-72
2022/05/18 02:16:09;;;;;;;4.20;3.80;;;;;;;9.22;85.24;98401.94;6255996;28;20597;-72
2022/05/18 02:19:12;;;;;;;4.87;3.47;;;;;;;9.14;85.18;98402.44;6256079;28;20314;-72
2022/05/18 02:22:14;;;;;;;4.37;3.50;;;;;;;9.09;85.08;98406.28;6255249;28;20246;-72
2022/05/18 02:25:16;;;;;;;4.33;3.43;;;;;;;9.04;85.51;98411.00;6255830;28;20284;-72
2022/05/18 02:28:19;;;;;;;3.53;3.23;;;;;;;9.03;85.64;98411.94;6256371;28;20382;-72
2022/05/18 02:31:21;;;;;;;4.27;3.10;;;;;;;9.00;85.40;98406.84;6229224;28;20236;-72
2022/05/18 02:34:24;;;;;;;3.33;3.03;;;;;;;8.94;86.03;98423.03;6250627;28;20241;-72
2022/05/18 02:37:26;;;;;;;3.97;3.27;;;;;;;8.91;85.66;98418.81;6238491;28;20733;-72
2022/05/18 02:40:29;;;;;;;4.50;3.57;;;;;;;8.87;85.80;98426.06;6255881;28;20235;-73
2022/05/18 02:43:31;;;;;;;4.10;3.60;;;;;;;8.83;85.56;98427.19;6260576;28;20235;-73
2022/05/18 02:46:34;;;;;;;4.77;3.80;;;;;;;8.78;85.87;98429.22;6258038;28;20231;-73
2022/05/18 02:49:36;;;;;;;3.70;3.30;;;;;;;8.72;85.83;98429.63;6238743;28;20604;-71
2022/05/18 02:52:38;;;;;;;4.60;3.53;;;;;;;8.67;86.18;98441.38;6255491;28;20336;-72
2022/05/18 02:59:01;;;;;;;4.77;3.60;;;;;;;8.59;86.16;98441.81;6255501;28;20638;-73
2022/05/18 03:02:04;;;;;;;4.80;3.83;;;;;;;8.59;85.46;98435.69;6180923;28;20240;-72
2022/05/18 03:05:07;;;;;;;4.13;3.73;;;;;;;8.57;86.11;98441.09;6228901;28;20310;-72
2022/05/18 03:08:09;;;;;;;4.43;4.03;;;;;;;8.57;86.38;98441.09;6243860;28;20227;-72
2022/05/18 03:11:12;;;;;;;6.70;3.93;;;;;;;8.56;86.12;98449.06;6255388;28;20233;-72
2022/05/18 03:14:14;;;;;;;5.67;4.20;;;;;;;8.53;85.79;98450.09;6254975;28;20231;-72
2022/05/18 03:17:16;;;;;;;5.53;4.23;;;;;;;8.50;85.80;98453.72;6254059;28;20314;-72
2022/05/18 03:23:40;;;;;;;4.00;3.60;;;;;;;8.49;86.10;98459.09;6254390;28;20230;-72
2022/05/18 03:26:44;;;;;;;3.73;3.43;;;;;;;8.47;86.11;98464.47;6254756;28;20231;-72
2022/05/18 03:29:46;;;;;;;4.00;3.50;;;;;;;8.48;86.55;98465.31;6253898;28;20234;-72
2022/05/18 03:32:48;;;;;;;6.37;3.43;;;;;;;8.47;85.80;98474.13;6254340;28;20288;-72
2022/05/18 03:35:51;;;;;;;4.90;3.60;;;;;;;8.46;86.99;98475.91;6253994;28;20252;-72
2022/05/18 03:38:54;;;;;;;5.30;3.47;;;;;;;8.48;85.94;98481.09;6253712;28;20233;-73
2022/05/18 03:41:57;;;;;;;4.63;4.17;;;;;;;8.47;86.59;98479.41;6253571;28;20281;-72
2022/05/18 03:44:59;;;;;;;4.27;3.87;;;;;;;8.47;85.70;98488.13;6235115;28;20651;-73
2022/05/18 03:48:01;;;;;;;6.47;3.40;;;;;;;8.51;86.39;98494.03;6253529;28;20234;-72
2022/05/18 03:51:06;;;;;;;4.13;3.40;;;;;;;8.53;86.39;98497.44;6253633;28;20630;-72
2022/05/18 03:54:08;;;;;;;4.53;4.13;;;;;;;8.54;85.87;98507.03;6236101;28;20214;-73
2022/05/18 03:57:10;;;;;;;4.23;3.53;;;;;;;8.54;86.28;98501.75;6254491;28;20219;-72
2022/05/18 04:00:13;;;;;;;4.90;3.83;;;;;;;8.51;86.40;98508.03;6252874;28;20215;-72
2022/05/18 04:03:18;;;;;;;3.70;3.40;;;;;;;8.45;85.82;98504.94;6253725;28;20259;-72
2022/05/18 04:06:21;;;;;;;3.93;3.53;;;;;;;8.42;85.66;98508.59;6251340;28;20587;-72
2022/05/18 04:09:23;;;;;;;3.47;3.17;;;;;;;8.40;86.08;98504.34;6254305;28;20231;-72
2022/05/18 04:12:27;;;;;;;4.83;3.63;;;;;;;8.41;86.13;98514.78;6253579;28;20241;-72
2022/05/18 04:15:30;;;;;;;4.33;3.87;;;;;;;8.44;86.00;98525.13;6251405;28;20245;-72
2022/05/18 04:18:33;;;;;;;7.07;3.90;;;;;;;8.51;85.76;98525.63;6236467;28;20257;-73
2022/05/18 04:21:35;;;;;;;4.93;3.90;;;;;;;8.57;86.07;98530.53;6252341;28;20227;-72
2022/05/18 04:24:37;;;;;;;3.90;3.50;;;;;;;8.58;86.10;98531.38;6253317;28;20218;-73
2022/05/18 04:27:40;;;;;;;4.10;3.70;;;;;;;8.61;86.30;98542.56;6243164;28;20314;-72
2022/05/18 04:30:44;;;;;;;4.10;3.70;;;;;;;8.61;85.82;98544.34;6241289;28;20280;-72
2022/05/18 04:33:46;;;;;;;5.33;3.90;;;;;;;8.65;85.81;98544.09;6253242;28;20357;-72
2022/05/18 04:36:48;;;;;;;5.83;3.77;;;;;;;8.69;86.62;98548.22;6252334;28;20237;-73
2022/05/18 04:39:51;;;;;;;3.63;3.30;;;;;;;8.72;86.58;98552.44;6252773;28;20233;-73
2022/05/18 04:42:53;;;;;;;4.17;3.80;;;;;;;8.75;86.60;98553.13;6252902;28;20326;-72
2022/05/18 04:45:55;;;;;;;5.43;4.10;;;;;;;8.79;86.52;98556.41;6252865;28;20299;-73
2022/05/18 04:48:57;;;;;;;4.03;3.40;;;;;;;8.81;86.42;98551.91;6227057;28;20244;-72
2022/05/18 04:52:01;;;;;;;5.17;4.07;;;;;;;8.81;85.84;98551.91;6244516;28;20653;-72
2022/05/18 04:55:04;;;;;;;4.60;4.20;;;;;;;8.84;86.32;98557.00;6256581;28;20300;-72
2022/05/18 04:58:06;;;;;;;3.90;3.60;;;;;;;8.85;85.66;98570.06;6260407;28;20235;-72
2022/05/18 05:01:10;;;;;;;3.77;3.47;;;;;;;8.90;86.35;98572.41;6261433;28;20229;-72
2022/05/18 05:04:13;;;;;;;3.93;3.57;;;;;;;8.97;86.45;98579.03;6243202;28;20317;-73
2022/05/18 05:07:15;;;;;;;4.10;3.70;;;;;;;9.05;85.38;98574.16;6260519;28;20332;-73
2022/05/18 05:10:18;;;;;;;4.33;3.93;;;;;;;9.10;86.09;98585.25;6259602;28;20308;-72
2022/05/18 05:13:21;;;;;;;6.37;3.90;;;;;;;9.17;85.76;98588.38;6259968;28;20230;-72
2022/05/18 05:16:23;;;;;;;4.97;3.83;;;;;;;9.21;85.45;98584.59;6260272;28;20855;-73
2022/05/18 05:19:26;;;;;;;3.67;3.37;;;;;;;9.26;85.92;98590.47;6260589;28;20234;-72
2022/05/18 05:22:28;;;;;;;4.53;3.40;;;;;;;9.32;85.95;98595.34;6242991;28;20692;-73
2022/05/18 05:25:30;;;;;;;4.43;4.03;;;;;;;9.37;85.76;98595.94;6256706;28;20228;-72
2022/05/18 05:28:32;;;;;;;4.37;3.77;;;;;;;9.43;86.04;98595.53;6253097;28;20272;-73
2022/05/18 05:31:35;;;;;;;6.83;5.00;;;;;;;9.53;86.56;98599.31;6260911;28;20215;-73
2022/05/18 05:34:37;;;;;;;6.67;4.00;;;;;;;9.60;87.15;98603.25;6260365;28;20286;-72
2022/05/18 05:37:40;;;;;;;4.80;4.17;;;;;;;9.73;87.20;98602.50;6243308;28;20710;-72
2022/05/18 05:40:42;;;;;;;5.73;4.40;;;;;;;9.84;88.37;98608.81;6261143;28;20234;-73
2022/05/18 05:43:44;;;;;;;7.40;5.00;;;;;;;9.95;88.44;98616.88;6258542;28;20292;-73
2022/05/18 05:46:46;;;;;;;5.60;5.00;;;;;;;10.05;88.10;98617.16;6260426;28;20709;-72
2022/05/18 05:49:49;;;;;;;5.67;4.57;;;;;;;10.16;88.02;98617.31;6260519;28;20322;-72
2022/05/18 05:52:51;;;;;;;5.40;4.77;;;;;;;10.27;87.92;98627.22;6242506;28;20229;-72
2022/05/18 05:55:54;;;;;;;7.37;5.00;;;;;;;10.38;88.23;98623.91;6242307;28;20231;-72
2022/05/18 05:58:56;;;;;;;7.83;4.53;;;;;;;10.48;88.11;98630.28;6242074;28;20721;-72
2022/05/18 06:02:01;;;;;;;6.30;4.13;;;;;;;10.61;88.00;98632.00;6259758;28;20676;-72
2022/05/18 06:05:04;;;;;;;6.17;4.27;;;;;;;10.77;87.56;98638.94;6252427;28;20228;-72
2022/05/18 06:08:07;;;;;;;6.37;4.50;;;;;;;10.94;87.89;98638.66;6236884;28;20232;-72
2022/05/18 06:11:10;;;;;;;5.63;4.13;;;;;;;11.12;87.19;98647.16;6256172;28;20239;-73
2022/05/18 06:14:12;;;;;;;6.13;3.83;;;;;;;11.23;86.76;98640.19;6256024;28;20768;-72
2022/05/18 06:17:14;;;;;;;5.10;3.83;;;;;;;11.39;86.44;98654.06;6255928;28;20286;-73
2022/05/18 06:20:16;;;;;;;4.07;3.67;;;;;;;11.60;86.11;98661.47;6238110;28;20240;-72
2022/05/18 06:23:18;;;;;;;5.40;4.20;;;;;;;11.80;85.15;98653.03;6236890;28;20701;-73
2022/05/18 06:26:21;;;;;;;6.37;5.00;;;;;;;12.00;83.44;98664.88;6254913;28;20238;-73
2022/05/18 06:29:25;;;;;;;5.77;4.40;;;;;;;12.26;82.00;98658.59;6254046;28;20260;-72
2022/05/18 06:32:27;;;;;;;10.37;5.30;;;;;;;12.61;79.75;98655.19;6255915;28;20223;-73
2022/05/18 06:35:29;;;;;;;7.40;4.77;;;;;;;12.98;78.05;98663.94;6255752;28;20228;-73
2022/05/18 06:38:32;;;;;;;7.87;5.00;;;;;;;13.32;75.56;98673.72;6255731;28;20234;-73
2022/05/18 06:41:35;;;;;;;5.53;4.37;;;;;;;13.68;73.30;98681.50;6237104;28;20242;-73
2022/05/18 06:44:37;;;;;;;5.17;4.00;;;;;;;14.06;71.81;98672.41;6255265;28;20227;-73
2022/05/18 06:47:43;;;;;;;6.17;3.60;;;;;;;14.36;70.71;98679.75;6243409;28;20227;-73
2022/05/18 06:50:46;;;;;;;8.80;4.30;;;;;;;14.53;69.82;98681.94;6240307;28;20373;-72
2022/05/18 06:53:53;;;;;;;6.17;3.77;;;;;;;14.96;68.46;98683.75;6237644;28;20722;-72
2022/05/18 06:56:55;;;;;;;3.90;3.10;;;;;;;15.26;66.91;98689.19;6254691;28;20234;-73
2022/05/18 06:59:57;;;;;;;4.43;2.90;;;;;;;15.56;65.64;98688.47;6255260;28;20227;-74
2022/05/18 07:02:59;;;;;;;4.57;3.30;;;;;;;15.85;64.68;98686.00;6237020;28;20747;-73
2022/05/18 07:06:03;;;;;;;5.00;3.23;;;;;;;16.06;63.75;98696.63;6253572;28;20239;-73
2022/05/18 07:09:16;;;;;;;2.87;2.57;;;;;;;16.38;64.08;98691.13;6254612;28;20334;-73
2022/05/18 07:12:18;;;;;;;5.37;3.47;;;;;;;16.52;62.39;98694.28;6254491;28;22132;-73
2022/05/18 07:15:21;;;;;;;3.83;3.33;;;;;;;16.68;60.41;98701.78;6237235;28;20219;-72
2022/05/18 07:18:29;;;;;;;4.17;2.70;;;;;;;17.06;60.46;98709.03;6253575;28;20227;-73
2022/05/18 07:21:31;;;;;;;5.57;3.37;;;;;;;17.40;58.35;98709.44;6254416;28;20318;-72
2022/05/18 07:24:33;;;;;;;4.53;3.37;;;;;;;17.71;57.95;98712.84;6254125;28;20593;-72
2022/05/18 07:27:35;;;;;;;3.93;3.00;;;;;;;18.02;56.90;98711.66;6255769;28;20610;-72
2022/05/18 07:30:38;;;;;;;5.40;3.03;;;;;;;18.27;55.73;98714.66;6228543;28;20236;-73
2022/05/18 07:33:41;;;;;;;4.43;2.63;;;;;;;18.67;55.85;98714.38;6244523;28;20259;-73
2022/05/18 07:36:44;;;;;;;2.50;2.30;;;;;;;18.56;56.10;98719.91;6254489;28;20602;-72
2022/05/18 07:39:46;;;;;;;3.03;2.60;;;;;;;18.17;56.62;98716.53;6236695;28;20242;-73
2022/05/18 07:42:48;;;;;;;3.83;2.60;;;;;;;18.53;54.09;98720.19;6254013;28;20242;-72
2022/05/18 07:45:54;;;;;;;5.90;3.00;;;;;;;18.83;52.70;98724.44;6236482;28;20602;-72
2022/05/18 07:48:56;;;;;;;7.30;2.73;;;;;;;19.09;52.94;98726.22;6236977;28;20239;-72
2022/05/18 07:51:59;;;;;;;3.63;2.60;;;;;;;19.11;53.69;98720.72;6235241;28;20274;-72
2022/05/18 07:55:01;;;;;;;3.60;2.57;;;;;;;19.89;53.15;98721.78;6254362;28;20239;-73
2022/05/18 07:58:09;;;;;;;2.53;2.20;;;;;;;20.56;51.97;98723.72;6253789;28;20718;-72
2022/05/18 08:01:11;;;;;;;4.13;2.60;;;;;;;20.90;50.18;98720.16;6229998;28;20239;-68
2022/05/18 08:04:14;;;;;;;4.23;2.13;;;;;;;21.10;49.63;98732.31;6211654;28;20365;-73
2022/05/18 08:07:16;;;;;;;7.00;3.07;;;;;;;21.04;47.90;98730.28;6235843;28;20242;-72
2022/05/18 08:17:02;;;;;;;5.50;3.10;;;;;;;20.07;47.76;98749.38;6253268;28;20632;-72
2022/05/18 08:20:07;;;;;;;3.67;2.87;;;;;;;19.92;48.59;98755.47;6253524;28;20310;-71
2022/05/18 08:23:09;;;;;;;5.87;3.80;;;;;;;20.01;48.36;98750.00;6253508;28;20732;-72
2022/05/18 08:26:12;;;;;;;3.87;3.17;;;;;;;20.09;48.55;98752.75;6253220;28;20280;-71
2022/05/18 08:29:14;;;;;;;5.43;3.30;;;;;;;20.74;46.97;98757.69;6252307;28;20231;-73
2022/05/18 08:32:22;;;;;;;7.20;4.63;;;;;;;21.11;45.61;98757.31;6252991;28;20310;-71
2022/05/18 08:35:25;;;;;;;6.00;3.90;;;;;;;20.24;46.91;98755.72;6235300;28;20238;-71
2022/05/18 08:38:27;;;;;;;4.73;4.10;;;;;;;20.99;46.23;98751.41;6253024;28;20322;-72
2022/05/18 08:41:34;;;;;;;5.80;3.60;;;;;;;21.62;43.64;98748.22;6252780;28;20260;-72
2022/05/18 08:44:37;;;;;;;5.87;3.80;;;;;;;22.05;43.05;98750.59;6252015;28;20231;-71
2022/05/18 08:47:44;;;;;;;6.20;5.10;;;;;;;21.34;43.43;98751.19;6234916;28;20227;-70
2022/05/18 08:50:48;;;;;;;5.20;4.30;;;;;;;21.85;43.17;98753.78;6253772;28;20238;-71
2022/05/18 08:54:06;;;;;;;5.37;3.40;;;;;;;21.95;41.07;98755.28;6236944;28;20702;-72
2022/05/18 08:57:17;;;;;;;5.37;3.47;;;;;;;22.07;38.92;98745.88;6222824;28;20692;-72
2022/05/18 09:00:30;;;;;;;5.23;3.00;;;;;;;22.65;38.65;98742.06;6252876;28;20717;-71
2022/05/18 09:03:40;;;;;;;4.93;3.27;;;;;;;22.30;39.22;98748.69;6252761;28;20333;-72
2022/05/18 09:06:49;;;;;;;5.13;3.00;;;;;;;22.66;38.87;98748.28;6251852;28;20360;-72
2022/05/18 09:10:14;;;;;;;7.03;3.60;;;;;;;22.93;39.18;98741.63;6235097;28;20232;-72
2022/05/18 09:13:16;;;;;;;10.97;4.40;;;;;;;22.96;39.25;98744.78;6253184;28;20230;-72
2022/05/18 09:17:13;;;;;;;5.77;3.00;;;;;;;23.65;37.92;98750.31;6235035;28;20223;-71
2022/05/18 09:20:24;;;;;;;4.30;3.37;;;;;;;22.95;38.06;98736.91;6137082;28;20328;-72
2022/05/18 09:24:19;;;;;;;5.83;3.13;;;;;;;22.52;36.37;98743.59;6136544;28;20240;-72
2022/05/18 09:27:47;;;;;;;6.87;3.17;;;;;;;22.87;39.25;98740.47;6130528;28;20240;-71
2022/05/18 09:31:26;;;;;;;5.10;3.33;;;;;;;23.57;37.44;98742.28;6152584;28;20827;-71
2022/05/18 09:34:59;;;;;;;4.17;2.83;;;;;;;23.04;35.20;98743.94;6148855;28;20226;-72
2022/05/18 09:38:11;;;;;;;4.40;2.43;;;;;;;23.51;35.42;98733.91;6129797;28;20223;-71
2022/05/18 09:41:18;;;;;;;2.57;2.30;;;;;;;23.89;34.26;98739.34;6154197;28;20249;-72
2022/05/18 09:44:25;;;;;;;4.77;2.67;;;;;;;23.87;34.47;98739.50;6157319;28;20558;-72
2022/05/18 09:47:32;;;;;;;6.20;2.60;;;;;;;22.79;36.83;98740.50;6156930;28;20234;-71
2022/05/18 09:50:41;;;;;;;3.57;2.33;;;;;;;22.19;37.29;98746.38;6140982;28;20603;-71
2022/05/18 09:53:44;;;;;;;5.60;2.77;;;;;;;21.80;37.17;98739.97;6141050;28;20322;-70
2022/05/18 09:56:52;;;;;;;3.87;2.50;;;;;;;22.70;37.55;98738.81;6258086;28;20741;-71
2022/05/18 10:00:00;;;;;;;2.00;1.80;;;;;;;24.13;36.56;98740.97;6256176;28;20257;-71
2022/05/18 10:09:51;;;;;;;3.10;2.80;;;;;;;23.49;34.37;98741.31;6256877;28;20231;-72
2022/05/18 10:12:53;;;;;;;2.20;2.00;;;;;;;23.40;32.91;98725.34;6256527;28;20219;-71
2022/05/18 10:16:04;;;;;;;3.57;2.20;;;;;;;23.67;34.40;98734.78;6255719;28;20251;-71
2022/05/18 10:19:19;;;;;;;5.33;2.40;;;;;;;23.44;34.44;98730.22;6238371;28;20238;-70
2022/05/18 10:22:26;;;;;;;2.83;1.80;;;;;;;23.85;34.46;98724.56;6256092;28;20241;-71
2022/05/18 10:25:55;;;;;;;2.83;1.57;;;;;;;24.61;30.11;98720.75;6256088;28;20240;-70
2022/05/18 10:29:22;;;;;;;2.80;1.50;;;;;;;25.17;29.93;98721.06;6255871;28;20251;-71
2022/05/18 10:32:27;;;;;;;2.97;1.90;;;;;;;25.19;30.07;98727.13;6238102;28;20234;-71
2022/05/18 10:35:48;;;;;;;3.00;1.90;;;;;;;24.57;30.62;98730.25;6237921;28;20235;-71
2022/05/18 10:38:53;;;;;;;2.90;2.10;;;;;;;24.86;31.78;98714.00;6259770;28;20234;-71
2022/05/18 10:41:56;;;;;;;3.13;1.70;;;;;;;25.27;30.28;98713.47;6256393;28;20247;-72
2022/05/18 10:45:01;;;;;;;3.75;1.52;;;;;;;25.06;30.43;98718.84;6254862;28;20238;-72
2022/05/18 10:48:18;;;;;;;2.92;1.63;;;;;;;24.21;29.03;98706.69;6254719;28;20341;-72
2022/05/18 10:51:37;;;;;;;3.03;1.60;;;;;;;24.63;29.64;98713.31;6230419;28;20228;-70
2022/05/18 10:54:53;;;;;;;2.20;1.50;;;;;;;25.69;29.64;98710.00;6253530;28;20638;-71
2022/05/18 10:57:57;;;;;;;5.20;1.85;;;;;;;25.28;27.80;98712.47;6237101;28;20703;-71
2022/05/18 11:01:09;;;;;;;2.50;1.30;;;;;;;25.14;27.53;98708.78;6258301;28;20227;-71
2022/05/18 11:04:26;;;;;;;3.55;1.50;;;;;;;25.53;27.67;98705.66;6231321;28;20220;-71
2022/05/18 11:07:30;;;;;;;3.10;1.30;;;;;;;25.17;28.55;98708.38;6255691;28;20262;-72
2022/05/18 11:10:52;;;;;;;5.10;1.63;;;;;;;24.43;27.76;98704.94;6255055;28;20235;-71
2022/05/18 11:14:08;;;;;;;2.05;1.70;;;;;;;24.47;27.45;98698.13;6237271;28;20578;-71
2022/05/18 11:17:39;;;;;;;6.75;1.38;;;;;;;24.83;25.78;98702.78;6255316;28;20231;-72
2022/05/18 11:21:16;;;;;;;1.65;1.08;;;;;;;25.99;26.40;98694.44;6237684;28;20237;-72
2022/05/18 11:24:47;;;;;;;2.63;1.40;;;;;;;26.55;22.97;98689.00;6254476;28;20227;-71
2022/05/18 11:28:34;;;;;;;4.90;1.50;;;;;;;25.81;26.69;98688.66;6254094;28;20239;-70
2022/05/18 11:32:00;;;;;;;2.33;1.40;;;;;;;24.63;26.84;98686.31;6254290;28;20234;-71
2022/05/18 11:35:10;;;;;;;3.90;1.10;;;;;;;25.47;25.32;98684.78;6253379;28;20238;-71
2022/05/18 11:38:14;;;;;;;1.63;1.42;;;;;;;25.02;25.77;98677.88;6254037;28;20224;-72
2022/05/18 11:41:38;;;;;;;2.45;1.52;;;;;;;25.26;26.80;98673.97;6254573;28;20710;-70
2022/05/18 11:45:01;;;;;;;1.80;1.30;;;;;;;25.88;25.02;98678.72;6253733;28;20733;-71
2022/05/18 11:48:33;;;;;;;2.25;1.20;;;;;;;26.26;25.87;98671.94;6254394;28;20691;-71
2022/05/18 11:51:59;;;;;;;1.38;0.98;;;;;;;26.87;26.32;98674.75;6246207;28;20223;-71
2022/05/18 11:55:07;;;;;;;2.90;1.50;;;;;;;27.19;23.87;98665.09;6254159;28;20231;-72
2022/05/18 11:58:49;;;;;;;4.13;1.50;;;;;;;26.36;25.53;98667.03;6247262;28;20223;-72
2022/05/18 12:02:13;;;;;;;2.90;1.30;;;;;;;25.55;25.55;98667.63;6253782;28;20247;-71
2022/05/18 12:05:18;;;;;;;3.05;1.20;;;;;;;25.58;26.05;98673.47;6235157;28;20235;-71
2022/05/18 12:08:39;;;;;;;2.15;1.02;;;;;;;26.06;25.38;98663.69;6253948;28;20231;-71
2022/05/18 12:12:08;;;;;;;2.03;1.23;;;;;;;26.64;25.80;98671.56;6253852;28;20227;-73
2022/05/18 12:15:22;;;;;;;2.22;1.08;;;;;;;27.03;25.50;98665.50;6235104;28;20238;-72
2022/05/18 12:18:36;;;;;;;1.45;1.13;;;;;;;27.45;25.24;98677.91;6253740;28;20753;-72
2022/05/18 12:21:47;;;;;;;3.08;1.13;;;;;;;27.99;24.25;98675.00;6252064;28;20220;-70
2022/05/18 12:24:52;;;;;;;1.20;0.90;;;;;;;27.49;23.91;98684.56;6253256;28;20284;-72
2022/05/18 12:27:59;;;;;;;1.65;1.05;;;;;;;27.60;23.63;98685.84;6253271;28;20338;-71
2022/05/18 12:31:01;;;;;;;1.55;1.45;;;;;;;27.43;23.83;98674.53;6211557;28;20231;-71
2022/05/18 12:34:26;;;;;;;2.15;1.00;;;;;;;27.55;23.24;98675.66;6223651;28;20239;-71
2022/05/18 12:37:53;;;;;;;9.48;2.20;;;;;;;27.25;22.78;98675.16;6248789;28;20593;-70
2022/05/18 12:41:00;;;;;;;1.48;1.05;;;;;;;27.42;23.12;98671.00;6253239;28;20694;-70
2022/05/18 12:44:06;;;;;;;3.15;1.10;;;;;;;26.86;23.73;98673.09;6252001;28;20326;-71
2022/05/18 12:47:46;;;;;;;2.53;1.13;;;;;;;26.56;23.39;98682.53;6252889;28;20575;-71
2022/05/18 12:50:48;;;;;;;2.05;1.00;;;;;;;26.39;22.93;98680.16;6234961;28;20235;-72
2022/05/18 12:53:49;;;;;;;2.95;1.13;;;;;;;26.32;24.13;98678.47;6252962;28;20246;-71
2022/05/18 12:57:07;;;;;;;2.00;1.33;;;;;;;24.92;24.41;98667.38;6236519;28;20307;-72
2022/05/18 13:00:24;;;;;;;1.67;1.02;;;;;;;25.88;24.90;98676.88;6257544;28;20235;-70
2022/05/18 13:03:42;;;;;;;1.25;1.00;;;;;;;26.76;22.86;98678.06;6237302;28;20240;-72
2022/05/18 13:06:48;;;;;;;1.30;1.20;;;;;;;27.51;22.41;98679.75;6229047;28;20708;-71
2022/05/18 13:10:04;;;;;;;1.92;1.35;;;;;;;27.37;21.58;98678.91;6227919;28;20232;-70
2022/05/18 13:13:23;;;;;;;2.40;1.05;;;;;;;25.95;24.47;98674.22;6227612;28;20378;-71
2022/05/18 13:16:37;;;;;;;2.90;1.40;;;;;;;25.96;24.32;98668.59;6230925;28;20236;-71
2022/05/18 13:20:02;;;;;;;1.25;1.02;;;;;;;25.91;23.75;98676.47;6233261;28;20240;-71
2022/05/18 13:23:24;;;;;;;1.30;1.20;;;;;;;26.61;22.70;98672.78;6233085;28;20232;-71
2022/05/18 13:26:43;;;;;;;2.53;1.00;;;;;;;28.17;21.72;98663.53;6232537;28;20224;-71
2022/05/18 13:29:50;;;;;;;1.17;1.00;;;;;;;29.34;20.33;98663.31;6207871;28;20229;-72
2022/05/18 13:32:52;;;;;;;1.08;1.00;;;;;;;29.65;20.87;98662.47;6206185;28;20236;-70
2022/05/18 13:35:54;;;;;;;3.55;1.30;;;;;;;30.15;19.58;98657.84;6227230;28;20238;-71
2022/05/18 13:38:56;;;;;;;1.67;1.05;;;;;;;29.29;20.00;98660.38;6233072;28;20254;-72
2022/05/18 13:42:05;;;;;;;2.28;1.20;;;;;;;27.94;21.35;98652.28;6232286;28;20231;-72
2022/05/18 13:45:13;;;;;;;2.13;1.30;;;;;;;28.01;21.39;98650.38;6231186;28;20285;-71
2022/05/18 13:48:17;;;;;;;2.95;1.00;;;;;;;27.82;21.28;98657.50;6214880;28;20334;-71
2022/05/18 13:51:54;;;;;;;2.67;0.90;;;;;;;27.66;20.30;98657.88;6231919;28;20302;-71
2022/05/18 13:55:02;;;;;;;1.45;1.20;;;;;;;28.26;20.05;98644.06;6214403;28;20251;-71
2022/05/18 13:58:07;;;;;;;1.83;1.05;;;;;;;29.32;18.48;98646.38;6209521;28;20590;-71
2022/05/18 14:01:12;;;;;;;2.47;1.20;;;;;;;31.13;18.04;98641.47;6214331;28;20231;-72
2022/05/18 14:04:21;;;;;;;2.60;1.40;;;;;;;30.69;16.73;98648.09;6226956;28;20742;-71
2022/05/18 14:07:30;;;;;;;1.67;0.93;;;;;;;32.35;15.41;98650.78;6256485;28;20265;-71
2022/05/18 14:10:55;;;;;;;0.90;0.85;;;;;;;35.34;14.23;98642.09;6247563;28;20560;-71
2022/05/18 14:14:07;;;;;;;2.47;1.10;;;;;;;37.20;11.21;98640.88;6252205;28;20232;-72
2022/05/18 14:17:31;;;;;;;1.33;0.88;;;;;;;37.61;10.48;98636.28;6256379;28;20233;-72
2022/05/18 14:20:41;;;;;;;3.20;0.90;;;;;;;37.70;11.10;98635.75;6253810;28;20226;-71
2022/05/18 14:24:04;;;;;;;1.17;0.90;;;;;;;39.27;10.24;98635.31;6256637;28;20239;-72
2022/05/18 14:27:41;;;;;;;2.67;1.10;;;;;;;38.34;9.79;98633.19;6236679;28;20485;-72
2022/05/18 14:30:45;;;;;;;2.13;1.13;;;;;;;38.68;10.45;98636.97;6131802;28;20698;-72
2022/05/18 14:34:11;;;;;;;2.10;0.75;;;;;;;37.60;10.18;98631.84;6132236;28;20264;-71
2022/05/18 14:37:30;;;;;;;1.13;0.70;;;;;;;37.88;9.56;98632.41;6131713;28;20317;-72
2022/05/18 14:40:46;;;;;;;3.45;1.00;;;;;;;38.76;9.00;98630.88;6131554;28;20297;-71
2022/05/18 14:43:54;;;;;;;1.40;1.00;;;;;;;39.43;9.19;98629.41;6131375;29;20710;-71
2022/05/18 14:46:59;;;;;;;2.53;0.90;;;;;;;39.37;8.17;98633.31;6122720;28;20231;-71
2022/05/18 14:50:15;;;;;;;3.38;0.90;;;;;;;39.65;8.74;98636.44;6132494;29;20234;-72
2022/05/18 14:53:28;;;;;;;1.40;1.10;;;;;;;40.72;7.87;98631.56;6115719;28;20818;-71
2022/05/18 14:56:38;;;;;;;1.40;0.90;;;;;;;40.75;8.44;98627.34;6115550;28;20231;-71
2022/05/18 14:59:50;;;;;;;2.38;0.80;;;;;;;40.43;8.41;98625.25;6132076;28;20329;-71
2022/05/18 15:02:57;;;;;;;1.77;1.00;;;;;;;38.16;8.84;98618.06;6101203;29;20286;-71
2022/05/18 15:06:00;;;;;;;0.90;0.82;;;;;;;37.98;8.65;98619.44;6128999;28;20263;-70
2022/05/18 15:09:05;;;;;;;1.23;0.82;;;;;;;37.14;9.37;98630.09;6213056;28;20235;-71